Time;durP1;ratioP1;P1;durP2;ratioP2;P2;SDS_P1;SDS_P2;PMS_P1;PMS_P2;Temp;Humidity;BMP_temperature;BMP_pressure;BME280_temperature;BME280_humidity;BME280_pressure;Samples;Min_cycle;Max_cycle;Signal;HPM_P1;HPM_P2
2023/04/22 00:00:44;;;;;;;2.97;2.77;;;;;;;;;;5030695;28;20317;-86
2023/04/22 00:03:11;;;;;;;4.13;2.40;;;;;;;;;;5033542;28;20211;-86
2023/04/22 00:05:40;;;;;;;2.87;2.33;;;;;;;;;;5033970;28;20230;-86
2023/04/22 00:08:07;;;;;;;2.43;2.30;;;;;;;;;;5029807;28;20214;-86
2023/04/22 00:10:34;;;;;;;2.30;2.10;;;;;;;;;;5030249;28;20238;-87
2023/04/22 00:13:01;;;;;;;4.03;2.30;;;;;;;;;;5030180;28;20262;-86
2023/04/22 00:15:28;;;;;;;2.30;2.10;;;;;;;;;;5029400;28;20237;-86
2023/04/22 00:17:56;;;;;;;2.13;2.03;;;;;;;;;;5033832;28;20207;-86
2023/04/22 00:20:23;;;;;;;2.60;2.40;;;;;;;;;;5033337;28;20234;-85
2023/04/22 00:22:51;;;;;;;2.80;2.60;;;;;;;;;;5034090;28;20222;-85
2023/04/22 00:25:19;;;;;;;2.43;2.23;;;;;;;;;;5033393;28;20210;-85
2023/04/22 00:27:46;;;;;;;2.73;2.53;;;;;;;;;;5033934;28;20210;-85
2023/04/22 00:30:13;;;;;;;3.63;2.60;;;;;;;;;;5032996;28;20254;-86
2023/04/22 00:32:40;;;;;;;3.30;2.63;;;;;;;;;;5025330;28;20235;-85
2023/04/22 00:35:08;;;;;;;3.20;3.00;;;;;;;;;;5033419;28;20214;-86
2023/04/22 00:37:35;;;;;;;2.90;2.60;;;;;;;;;;5032698;28;20206;-86
2023/04/22 00:40:05;;;;;;;3.17;2.70;;;;;;;;;;5030524;28;20608;-87
2023/04/22 00:42:32;;;;;;;3.13;2.83;;;;;;;;;;5029468;28;20253;-86
2023/04/22 00:44:59;;;;;;;5.73;2.40;;;;;;;;;;5032640;28;20225;-87
2023/04/22 00:47:27;;;;;;;4.57;2.80;;;;;;;;;;5033370;28;20211;-86
2023/04/22 00:49:54;;;;;;;2.70;2.50;;;;;;;;;;5027485;28;20206;-85
2023/04/22 00:52:21;;;;;;;5.07;2.67;;;;;;;;;;5027052;28;20231;-86
2023/04/22 00:54:49;;;;;;;2.90;2.60;;;;;;;;;;5022920;28;20246;-85
2023/04/22 00:57:18;;;;;;;3.40;3.10;;;;;;;;;;5021228;28;20285;-86
2023/04/22 00:59:45;;;;;;;3.83;3.00;;;;;;;;;;5030243;28;20207;-86
2023/04/22 01:02:12;;;;;;;3.57;3.27;;;;;;;;;;5030807;28;20256;-85
2023/04/22 01:04:39;;;;;;;5.17;2.77;;;;;;;;;;5033050;28;20219;-85
2023/04/22 01:07:06;;;;;;;2.90;2.70;;;;;;;;;;5032086;28;20222;-86
2023/04/22 01:09:33;;;;;;;3.23;2.83;;;;;;;;;;5025863;28;20218;-86
2023/04/22 01:12:01;;;;;;;2.93;2.70;;;;;;;;;;5032103;28;20245;-86
2023/04/22 01:14:29;;;;;;;3.63;2.77;;;;;;;;;;5033410;28;20207;-86
2023/04/22 01:16:56;;;;;;;3.23;2.93;;;;;;;;;;5032682;28;20245;-85
2023/04/22 01:19:24;;;;;;;3.10;2.80;;;;;;;;;;5029911;28;20676;-86
2023/04/22 01:21:51;;;;;;;2.70;2.50;;;;;;;;;;5032591;28;20237;-86
2023/04/22 01:24:20;;;;;;;3.83;2.60;;;;;;;;;;5033079;28;20213;-85
2023/04/22 01:26:47;;;;;;;4.30;2.70;;;;;;;;;;5032589;28;20770;-85
2023/04/22 01:29:14;;;;;;;3.77;3.00;;;;;;;;;;5028307;28;20681;-86
2023/04/22 01:31:41;;;;;;;3.27;3.07;;;;;;;;;;5028921;28;20238;-86
2023/04/22 01:34:08;;;;;;;2.90;2.70;;;;;;;;;;5033051;28;20219;-86
2023/04/22 01:36:35;;;;;;;3.53;3.23;;;;;;;;;;5023606;28;20219;-86
2023/04/22 01:39:02;;;;;;;3.27;3.00;;;;;;;;;;5030353;28;20219;-86
2023/04/22 01:41:31;;;;;;;5.00;3.23;;;;;;;;;;5032066;28;20226;-86
2023/04/22 01:43:58;;;;;;;4.37;3.40;;;;;;;;;;5032608;28;20211;-86
2023/04/22 01:46:25;;;;;;;5.00;3.40;;;;;;;;;;5032501;28;20227;-86
2023/04/22 01:48:52;;;;;;;4.17;3.77;;;;;;;;;;5035132;28;20219;-85
2023/04/22 01:51:20;;;;;;;3.70;3.40;;;;;;;;;;5041159;28;20226;-85
2023/04/22 01:53:47;;;;;;;6.13;3.77;;;;;;;;;;5036082;28;20254;-86
2023/04/22 01:56:14;;;;;;;6.37;4.77;;;;;;;;;;5031348;28;20231;-85
2023/04/22 01:58:43;;;;;;;4.00;3.60;;;;;;;;;;5032370;28;20680;-85
2023/04/22 02:01:11;;;;;;;4.20;3.80;;;;;;;;;;5027440;28;20231;-85
2023/04/22 02:03:38;;;;;;;6.77;3.97;;;;;;;;;;5036512;28;20208;-87
2023/04/22 02:06:05;;;;;;;4.83;4.20;;;;;;;;;;5035391;28;20237;-86
2023/04/22 02:08:33;;;;;;;5.30;3.87;;;;;;;;;;5035505;28;20277;-86
2023/04/22 02:11:00;;;;;;;4.53;3.90;;;;;;;;;;5035013;28;20700;-86
2023/04/22 02:13:27;;;;;;;4.77;4.30;;;;;;;;;;5035842;28;20219;-86
2023/04/22 02:15:56;;;;;;;6.53;4.30;;;;;;;;;;5035397;28;20242;-85
2023/04/22 02:18:23;;;;;;;6.53;4.80;;;;;;;;;;5030945;28;20214;-86
2023/04/22 02:20:50;;;;;;;4.63;4.23;;;;;;;;;;5034007;28;20242;-85
2023/04/22 02:23:17;;;;;;;4.63;3.90;;;;;;;;;;5028688;28;20203;-86
2023/04/22 02:25:49;;;;;;;4.40;4.00;;;;;;;;;;5035087;28;20230;-86
2023/04/22 02:28:16;;;;;;;5.57;3.80;;;;;;;;;;5028199;28;20219;-86
2023/04/22 02:30:43;;;;;;;3.80;3.50;;;;;;;;;;5034614;28;20257;-85
2023/04/22 02:33:11;;;;;;;4.53;3.17;;;;;;;;;;5027460;28;20223;-86
2023/04/22 02:35:38;;;;;;;4.73;3.63;;;;;;;;;;5035076;28;20234;-86
2023/04/22 02:38:05;;;;;;;3.60;3.30;;;;;;;;;;5035538;28;20225;-85
2023/04/22 02:40:32;;;;;;;4.27;3.77;;;;;;;;;;5025889;28;20230;-86
2023/04/22 02:42:59;;;;;;;4.00;3.60;;;;;;;;;;5032018;28;20613;-85
2023/04/22 02:45:27;;;;;;;4.50;4.10;;;;;;;;;;5029218;28;20231;-85
2023/04/22 02:47:54;;;;;;;4.10;3.80;;;;;;;;;;5035254;28;20206;-86
2023/04/22 02:50:22;;;;;;;3.67;3.37;;;;;;;;;;5034529;28;20242;-86
2023/04/22 02:52:50;;;;;;;6.07;4.33;;;;;;;;;;5032822;28;20216;-85
2023/04/22 02:55:17;;;;;;;4.47;3.87;;;;;;;;;;5029689;28;20720;-86
2023/04/22 02:57:46;;;;;;;6.00;4.50;;;;;;;;;;5035349;28;20217;-85
2023/04/22 03:00:14;;;;;;;5.10;4.60;;;;;;;;;;5013868;28;20282;-85
2023/04/22 03:02:41;;;;;;;6.33;4.23;;;;;;;;;;5031030;28;20703;-85
2023/04/22 03:05:08;;;;;;;4.30;3.70;;;;;;;;;;5026130;28;20213;-86
2023/04/22 03:07:37;;;;;;;4.27;3.93;;;;;;;;;;5034889;28;20210;-85
2023/04/22 03:10:04;;;;;;;4.30;3.90;;;;;;;;;;5031737;28;20238;-86
2023/04/22 03:12:31;;;;;;;4.27;3.87;;;;;;;;;;5035088;28;20202;-85
2023/04/22 03:14:58;;;;;;;4.73;4.33;;;;;;;;;;5032044;28;20227;-87
2023/04/22 03:17:26;;;;;;;6.57;4.47;;;;;;;;;;5034179;28;20207;-86
2023/04/22 03:19:53;;;;;;;4.20;3.80;;;;;;;;;;5034241;28;20221;-87
2023/04/22 03:22:20;;;;;;;5.63;4.50;;;;;;;;;;5025808;28;20226;-86
2023/04/22 03:24:49;;;;;;;4.63;4.13;;;;;;;;;;5033926;28;20210;-85
2023/04/22 03:27:16;;;;;;;4.93;4.30;;;;;;;;;;5026553;28;20222;-86
2023/04/22 03:29:43;;;;;;;6.50;4.37;;;;;;;;;;5034978;28;20211;-86
2023/04/22 03:32:10;;;;;;;4.77;4.37;;;;;;;;;;5025748;28;20233;-86
2023/04/22 03:34:37;;;;;;;4.90;4.40;;;;;;;;;;5034371;28;20696;-86
2023/04/22 03:37:04;;;;;;;4.53;4.13;;;;;;;;;;5028683;28;20241;-86
2023/04/22 03:39:31;;;;;;;4.97;4.50;;;;;;;;;;5033819;28;20214;-85
2023/04/22 03:42:00;;;;;;;5.53;4.60;;;;;;;;;;5033543;28;20238;-86
2023/04/22 03:44:27;;;;;;;4.50;4.10;;;;;;;;;;5034554;28;20230;-86
2023/04/22 03:46:54;;;;;;;4.20;3.80;;;;;;;;;;5033734;28;20237;-85
2023/04/22 03:49:21;;;;;;;6.23;4.00;;;;;;;;;;5034318;28;20215;-86
2023/04/22 03:51:48;;;;;;;5.90;3.77;;;;;;;;;;5025851;28;20230;-86
2023/04/22 03:54:15;;;;;;;4.60;3.63;;;;;;;;;;5025898;28;20226;-85
2023/04/22 03:56:42;;;;;;;4.17;3.77;;;;;;;;;;5033417;28;20235;-85
2023/04/22 03:59:11;;;;;;;4.40;3.90;;;;;;;;;;5033821;28;20219;-85
2023/04/22 04:01:38;;;;;;;3.60;3.30;;;;;;;;;;5033055;28;20608;-86
2023/04/22 04:04:05;;;;;;;4.33;3.70;;;;;;;;;;5033467;28;20198;-85
2023/04/22 04:06:32;;;;;;;4.37;3.70;;;;;;;;;;5028702;28;20234;-85
2023/04/22 04:09:00;;;;;;;6.10;3.97;;;;;;;;;;5033431;28;20704;-85
2023/04/22 04:11:27;;;;;;;4.17;3.80;;;;;;;;;;5040216;23;20700;-86
2023/04/22 04:13:54;;;;;;;4.47;4.07;;;;;;;;;;5012420;28;20231;-85
2023/04/22 04:16:23;;;;;;;5.33;4.17;;;;;;;;;;5020347;28;20242;-86
2023/04/22 04:18:50;;;;;;;4.63;4.23;;;;;;;;;;5018015;28;20215;-86
2023/04/22 04:21:17;;;;;;;4.23;3.73;;;;;;;;;;5023582;28;20230;-86
2023/04/22 04:23:44;;;;;;;5.63;3.97;;;;;;;;;;5032166;28;20202;-86
2023/04/22 04:26:11;;;;;;;4.43;4.03;;;;;;;;;;5031252;28;20241;-86
2023/04/22 04:28:40;;;;;;;5.27;3.83;;;;;;;;;;5025740;28;20214;-86
2023/04/22 04:31:07;;;;;;;4.10;3.70;;;;;;;;;;5031175;28;20234;-86
2023/04/22 04:33:36;;;;;;;3.77;3.40;;;;;;;;;;5023363;28;20233;-85
2023/04/22 04:36:03;;;;;;;4.30;3.80;;;;;;;;;;5027480;28;20598;-85
2023/04/22 04:38:31;;;;;;;4.83;3.57;;;;;;;;;;5031781;28;20261;-86
2023/04/22 04:40:58;;;;;;;3.63;3.33;;;;;;;;;;5030830;28;20250;-86
2023/04/22 04:43:25;;;;;;;4.10;3.80;;;;;;;;;;5031704;28;20233;-85
2023/04/22 04:45:52;;;;;;;3.93;3.50;;;;;;;;;;5030955;28;20242;-85
2023/04/22 04:48:23;;;;;;;5.77;3.83;;;;;;;;;;5030700;28;20215;-86
2023/04/22 04:50:53;;;;;;;3.90;3.60;;;;;;;;;;5016196;28;20231;-85
2023/04/22 04:53:20;;;;;;;6.67;3.87;;;;;;;;;;5031999;28;20207;-86
2023/04/22 04:55:47;;;;;;;5.07;4.10;;;;;;;;;;5031268;28;20241;-85
2023/04/22 04:58:15;;;;;;;4.73;4.17;;;;;;;;;;5031449;28;20206;-86
2023/04/22 05:00:42;;;;;;;4.53;4.03;;;;;;;;;;5030451;28;20300;-85
2023/04/22 05:03:09;;;;;;;4.27;3.87;;;;;;;;;;5031620;28;20234;-85
2023/04/22 05:05:36;;;;;;;5.30;4.10;;;;;;;;;;5031223;28;20227;-86
2023/04/22 05:08:05;;;;;;;4.50;4.10;;;;;;;;;;5031613;28;20233;-85
2023/04/22 05:10:32;;;;;;;4.53;4.07;;;;;;;;;;5025635;28;20234;-85
2023/04/22 05:12:59;;;;;;;5.17;3.80;;;;;;;;;;5028737;28;20237;-86
2023/04/22 05:15:26;;;;;;;7.27;4.10;;;;;;;;;;5031087;28;20234;-86
2023/04/22 05:17:54;;;;;;;4.00;3.70;;;;;;;;;;5031764;28;20210;-86
2023/04/22 05:20:21;;;;;;;5.30;3.70;;;;;;;;;;5031149;28;20292;-86
2023/04/22 05:22:48;;;;;;;4.23;3.83;;;;;;;;;;5031837;28;20225;-85
2023/04/22 05:25:17;;;;;;;4.77;4.37;;;;;;;;;;5024091;28;20207;-85
2023/04/22 05:27:44;;;;;;;4.83;4.00;;;;;;;;;;5022379;28;20211;-85
2023/04/22 05:30:14;;;;;;;6.10;4.23;;;;;;;;;;5025889;28;20322;-85
2023/04/22 05:32:41;;;;;;;6.90;4.30;;;;;;;;;;5029170;28;20207;-85
2023/04/22 05:35:08;;;;;;;4.73;4.33;;;;;;;;;;5032268;28;20242;-85
2023/04/22 05:37:36;;;;;;;5.83;4.30;;;;;;;;;;5034393;28;20234;-85
2023/04/22 05:40:03;;;;;;;8.70;4.47;;;;;;;;;;5033955;28;20214;-84
2023/04/22 05:42:31;;;;;;;5.50;4.53;;;;;;;;;;5034897;28;20214;-84
2023/04/22 05:44:58;;;;;;;4.43;4.10;;;;;;;;;;5034479;28;20210;-84
2023/04/22 05:47:25;;;;;;;5.83;4.40;;;;;;;;;;5035192;28;20211;-84
2023/04/22 05:49:52;;;;;;;7.03;4.60;;;;;;;;;;5034936;28;20214;-84
2023/04/22 05:52:19;;;;;;;7.13;4.87;;;;;;;;;;5034257;28;20230;-85
2023/04/22 05:54:46;;;;;;;5.47;4.97;;;;;;;;;;5036507;28;20222;-84
2023/04/22 05:57:13;;;;;;;5.90;5.30;;;;;;;;;;5034166;28;20334;-83
2023/04/22 05:59:42;;;;;;;5.70;4.90;;;;;;;;;;5034471;28;20214;-83
2023/04/22 06:02:09;;;;;;;6.87;4.77;;;;;;;;;;5033516;28;20734;-84
2023/04/22 06:04:36;;;;;;;5.30;4.80;;;;;;;;;;5034657;28;20206;-84
2023/04/22 06:07:03;;;;;;;7.00;5.70;;;;;;;;;;5033821;28;20258;-83
2023/04/22 06:09:30;;;;;;;5.70;5.10;;;;;;;;;;5034625;28;20183;-83
2023/04/22 06:11:57;;;;;;;7.00;6.13;;;;;;;;;;5027932;28;20239;-83
2023/04/22 06:14:24;;;;;;;7.63;6.17;;;;;;;;;;5034563;28;20230;-83
2023/04/22 06:16:53;;;;;;;6.27;5.67;;;;;;;;;;5033111;28;20234;-82
2023/04/22 06:19:20;;;;;;;6.20;5.60;;;;;;;;;;5034422;28;20294;-83
2023/04/22 06:21:47;;;;;;;7.67;5.83;;;;;;;;;;5033558;28;20763;-84
2023/04/22 06:24:21;;;;;;;5.73;4.93;;;;;;;;;;5028727;28;20208;-83
2023/04/22 06:29:39;;;;;;;7.97;6.40;;;;;;;;;;4996995;28;20214;-84
2023/04/22 06:32:07;;;;;;;9.07;6.20;;;;;;;;;;5024753;28;20241;-83
2023/04/22 06:34:34;;;;;;;6.50;5.77;;;;;;;;;;5033846;28;20234;-83
2023/04/22 06:37:01;;;;;;;8.83;5.73;;;;;;;;;;5033356;28;20811;-83
2023/04/22 06:39:29;;;;;;;6.70;5.77;;;;;;;;;;5033909;28;20210;-84
2023/04/22 06:41:56;;;;;;;5.60;5.00;;;;;;;;;;5015312;28;20261;-84
2023/04/22 06:44:24;;;;;;;8.47;5.23;;;;;;;;;;5028967;28;20293;-83
2023/04/22 06:46:51;;;;;;;7.40;5.50;;;;;;;;;;5020497;28;20226;-83
2023/04/22 06:49:19;;;;;;;5.40;4.90;;;;;;;;;;5033508;28;20664;-84
2023/04/22 06:51:47;;;;;;;5.60;5.10;;;;;;;;;;5029246;28;20233;-84
2023/04/22 06:54:14;;;;;;;11.33;6.10;;;;;;;;;;5024986;28;20594;-84
2023/04/22 06:56:41;;;;;;;7.23;6.40;;;;;;;;;;5033156;28;20708;-85
2023/04/22 06:59:08;;;;;;;6.13;5.27;;;;;;;;;;5031804;28;20207;-84
2023/04/22 07:01:35;;;;;;;6.03;5.07;;;;;;;;;;5025941;28;20234;-85
2023/04/22 07:04:02;;;;;;;5.10;4.60;;;;;;;;;;5024872;28;20706;-84
2023/04/22 07:06:31;;;;;;;7.80;4.73;;;;;;;;;;5024858;28;20238;-84
2023/04/22 07:08:58;;;;;;;5.57;5.07;;;;;;;;;;5025420;28;20612;-85
2023/04/22 07:11:26;;;;;;;4.87;4.37;;;;;;;;;;5032703;28;20230;-85
2023/04/22 07:13:53;;;;;;;6.57;5.17;;;;;;;;;;5033409;28;20288;-84
2023/04/22 07:16:20;;;;;;;5.50;4.33;;;;;;;;;;5032629;28;20238;-85
2023/04/22 07:18:47;;;;;;;7.20;4.60;;;;;;;;;;5033187;28;20211;-84
2023/04/22 07:21:15;;;;;;;4.03;3.73;;;;;;;;;;5032345;28;20234;-84
2023/04/22 07:23:43;;;;;;;4.57;4.17;;;;;;;;;;5033218;28;20213;-84
2023/04/22 07:26:10;;;;;;;4.40;4.00;;;;;;;;;;5032466;28;20235;-84
2023/04/22 07:28:37;;;;;;;7.60;3.90;;;;;;;;;;5033083;28;20214;-85
2023/04/22 07:31:04;;;;;;;6.20;4.70;;;;;;;;;;5032287;28;20237;-84
2023/04/22 07:33:31;;;;;;;4.80;4.40;;;;;;;;;;5032952;28;20207;-83
2023/04/22 07:35:59;;;;;;;3.77;3.43;;;;;;;;;;5032372;28;20238;-83
2023/04/22 07:38:26;;;;;;;4.40;3.97;;;;;;;;;;5032965;28;20222;-83
2023/04/22 07:40:54;;;;;;;5.43;4.23;;;;;;;;;;5032303;28;20624;-83
2023/04/22 07:43:21;;;;;;;7.10;4.93;;;;;;;;;;5032633;28;20221;-83
2023/04/22 07:45:48;;;;;;;5.87;5.00;;;;;;;;;;5031841;28;20225;-84
2023/04/22 07:48:15;;;;;;;6.73;5.17;;;;;;;;;;5032587;28;20230;-84
2023/04/22 07:50:42;;;;;;;4.90;4.40;;;;;;;;;;5031465;28;20234;-85
2023/04/22 07:53:10;;;;;;;5.03;4.10;;;;;;;;;;5031579;28;20222;-84
2023/04/22 07:55:37;;;;;;;5.20;4.03;;;;;;;;;;5025679;28;20258;-84
2023/04/22 07:58:05;;;;;;;5.00;4.20;;;;;;;;;;5032093;28;20221;-85
2023/04/22 08:00:32;;;;;;;3.80;3.50;;;;;;;;;;5026560;28;20234;-85
2023/04/22 08:03:00;;;;;;;3.80;3.50;;;;;;;;;;5025498;28;20206;-85
2023/04/22 08:05:27;;;;;;;4.17;3.33;;;;;;;;;;5031612;28;20254;-86
2023/04/22 08:07:54;;;;;;;3.97;3.07;;;;;;;;;;5033107;28;20214;-85
2023/04/22 08:10:21;;;;;;;6.13;3.13;;;;;;;;;;5031506;28;20238;-86
2023/04/22 08:12:48;;;;;;;3.23;2.97;;;;;;;;;;5030704;28;20206;-86
2023/04/22 08:15:16;;;;;;;3.80;2.93;;;;;;;;;;5031741;28;20272;-89
2023/04/22 08:17:45;;;;;;;4.33;3.20;;;;;;;;;;5029506;28;20215;-88
2023/04/22 08:20:14;;;;;;;3.57;2.70;;;;;;;;;;5032203;28;20313;-88
2023/04/22 08:22:42;;;;;;;2.97;2.67;;;;;;;;;;5032786;28;20199;-88
2023/04/22 08:25:10;;;;;;;3.10;2.67;;;;;;;;;;5027622;28;20206;-87
2023/04/22 08:27:37;;;;;;;3.20;2.60;;;;;;;;;;5032332;28;20202;-87
2023/04/22 08:30:05;;;;;;;3.90;2.70;;;;;;;;;;5033083;28;20207;-87
2023/04/22 08:32:33;;;;;;;3.30;2.70;;;;;;;;;;5024035;28;20199;-87
2023/04/22 08:35:00;;;;;;;3.87;2.57;;;;;;;;;;5031673;28;20223;-87
2023/04/22 08:37:27;;;;;;;2.80;2.60;;;;;;;;;;5024767;28;20214;-85
2023/04/22 08:39:55;;;;;;;3.13;2.90;;;;;;;;;;5031531;28;20569;-88
2023/04/22 08:42:22;;;;;;;3.00;2.77;;;;;;;;;;5032403;28;20640;-87
2023/04/22 08:44:50;;;;;;;4.07;3.10;;;;;;;;;;5032048;28;20213;-86
2023/04/22 08:47:19;;;;;;;2.93;2.73;;;;;;;;;;5031127;28;20233;-86
2023/04/22 08:49:48;;;;;;;3.40;3.10;;;;;;;;;;5031846;28;20203;-87
2023/04/22 08:52:15;;;;;;;3.55;3.05;;;;;;;;;;5031227;28;20241;-87
2023/04/22 08:54:42;;;;;;;4.15;3.00;;;;;;;;;;5031555;28;20198;-87
2023/04/22 08:57:09;;;;;;;2.60;2.40;;;;;;;;;;5030794;28;20250;-87
2023/04/22 08:59:37;;;;;;;3.08;2.88;;;;;;;;;;5031302;28;20252;-86
2023/04/22 09:02:05;;;;;;;2.75;2.55;;;;;;;;;;5030632;28;20243;-86
2023/04/22 09:04:32;;;;;;;3.03;2.80;;;;;;;;;;5031488;28;20206;-87
2023/04/22 09:07:02;;;;;;;2.70;2.50;;;;;;;;;;5031142;28;20249;-86
2023/04/22 09:09:30;;;;;;;3.20;2.90;;;;;;;;;;5031488;28;20206;-86
2023/04/22 09:11:57;;;;;;;4.47;2.70;;;;;;;;;;5031128;28;20242;-87
2023/04/22 09:14:25;;;;;;;3.08;2.78;;;;;;;;;;5031369;28;20264;-87
2023/04/22 09:16:52;;;;;;;2.83;2.63;;;;;;;;;;5031051;28;20235;-87
2023/04/22 09:19:19;;;;;;;2.67;2.47;;;;;;;;;;5031767;28;20203;-87
2023/04/22 09:21:46;;;;;;;3.58;3.13;;;;;;;;;;5025874;28;20226;-86
2023/04/22 09:24:16;;;;;;;2.85;2.65;;;;;;;;;;5018284;28;20211;-87
2023/04/22 09:26:44;;;;;;;2.80;2.60;;;;;;;;;;5029555;28;20701;-86
2023/04/22 09:29:14;;;;;;;4.50;2.80;;;;;;;;;;5029482;28;20425;-86
2023/04/22 09:31:41;;;;;;;2.63;2.42;;;;;;;;;;5029304;28;20240;-87
2023/04/22 09:34:09;;;;;;;2.88;2.67;;;;;;;;;;5030224;28;20199;-87
2023/04/22 09:36:37;;;;;;;2.92;2.45;;;;;;;;;;5022160;28;20234;-87
2023/04/22 09:39:05;;;;;;;3.13;2.72;;;;;;;;;;5031365;28;20245;-87
2023/04/22 09:41:34;;;;;;;2.58;2.38;;;;;;;;;;5030780;28;20292;-87
2023/04/22 09:44:02;;;;;;;2.80;2.60;;;;;;;;;;5031497;28;20213;-86
2023/04/22 09:46:30;;;;;;;2.90;2.70;;;;;;;;;;5031224;28;20285;-87
2023/04/22 09:48:58;;;;;;;2.85;2.45;;;;;;;;;;5031593;28;20207;-87
2023/04/22 09:51:27;;;;;;;4.70;2.65;;;;;;;;;;5030650;28;20273;-87
2023/04/22 09:53:58;;;;;;;3.40;2.45;;;;;;;;;;5031307;28;20230;-87
2023/04/22 09:59:21;;;;;;;3.08;2.85;;;;;;;;;;5089020;27;20554;-86
2023/04/22 10:01:49;;;;;;;2.55;2.17;;;;;;;;;;5072799;28;20690;-86
2023/04/22 10:04:20;;;;;;;2.95;2.30;;;;;;;;;;5068967;28;20213;-86
2023/04/22 10:06:47;;;;;;;2.35;2.15;;;;;;;;;;5068482;28;20237;-86
2023/04/22 10:09:15;;;;;;;9.52;3.28;;;;;;;;;;5068811;28;20233;-86
2023/04/22 10:11:42;;;;;;;3.67;2.30;;;;;;;;;;5078413;22;20250;-91
2023/04/22 10:14:10;;;;;;;3.05;2.47;;;;;;;;;;5050837;28;20667;-91
2023/04/22 10:16:39;;;;;;;2.30;2.10;;;;;;;;;;5050806;28;20249;-91
2023/04/22 10:19:08;;;;;;;5.25;2.78;;;;;;;;;;5060021;28;20711;-91
2023/04/22 10:21:35;;;;;;;2.40;1.90;;;;;;;;;;5054194;28;20304;-91
2023/04/22 10:24:02;;;;;;;1.88;1.77;;;;;;;;;;5071183;28;20212;-91
2023/04/22 10:26:42;;;;;;;3.10;2.15;;;;;;;;;;5061764;28;20230;-91
2023/04/22 10:29:15;;;;;;;2.50;2.30;;;;;;;;;;5070582;28;20212;-92
2023/04/22 10:31:44;;;;;;;1.77;1.67;;;;;;;;;;5063091;28;20248;-91
2023/04/22 10:34:12;;;;;;;2.72;1.80;;;;;;;;;;5070763;28;20209;-91
2023/04/22 10:36:56;;;;;;;1.55;1.45;;;;;;;;;;5062236;28;20257;-89
2023/04/22 10:39:23;;;;;;;2.83;1.67;;;;;;;;;;5068970;28;20225;-88
2023/04/22 10:41:54;;;;;;;1.83;1.38;;;;;;;;;;5068140;28;20287;-87
2023/04/22 10:44:22;;;;;;;1.48;1.38;;;;;;;;;;5068954;28;20216;-87
2023/04/22 10:47:03;;;;;;;1.58;1.45;;;;;;;;;;5063113;28;20226;-87
2023/04/22 10:49:34;;;;;;;1.20;1.10;;;;;;;;;;5068064;28;20205;-87
2023/04/22 10:52:02;;;;;;;3.05;1.55;;;;;;;;;;5068480;28;20244;-88
2023/04/22 10:54:48;;;;;;;1.63;1.20;;;;;;;;;;5068862;28;20212;-87
2023/04/22 10:57:21;;;;;;;2.25;1.60;;;;;;;;;;5068298;28;20228;-89
2023/04/22 10:59:49;;;;;;;6.45;2.38;;;;;;;;;;5071188;28;20651;-88
2023/04/22 11:02:18;;;;;;;2.05;1.30;;;;;;;;;;5068000;28;20240;-89
2023/04/22 11:04:45;;;;;;;1.73;1.30;;;;;;;;;;5068775;28;20263;-88
2023/04/22 11:07:16;;;;;;;2.20;1.30;;;;;;;;;;5068053;28;20240;-90
2023/04/22 11:09:44;;;;;;;1.48;1.33;;;;;;;;;;5060517;28;20241;-91
2023/04/22 11:12:38;;;;;;;1.30;1.20;;;;;;;;;;5054847;28;20234;-89
2023/04/22 11:15:06;;;;;;;5.03;1.55;;;;;;;;;;5054881;28;20202;-88
2023/04/22 11:17:34;;;;;;;2.72;2.15;;;;;;;;;;5056409;28;20699;-88
2023/04/22 11:20:02;;;;;;;1.85;1.60;;;;;;;;;;5054595;28;20656;-89
2023/04/22 11:22:29;;;;;;;2.67;1.40;;;;;;;;;;5055653;28;20252;-89
2023/04/22 11:24:56;;;;;;;1.98;1.38;;;;;;;;;;5055048;28;20256;-89
2023/04/22 11:27:25;;;;;;;3.25;1.70;;;;;;;;;;5054712;28;20229;-89
2023/04/22 11:30:01;;;;;;;0.95;0.95;;;;;;;;;;5055068;28;20209;-87
2023/04/22 11:32:28;;;;;;;1.45;1.35;;;;;;;;;;5054405;28;20238;-88
2023/04/22 11:34:57;;;;;;;2.38;1.20;;;;;;;;;;5055297;28;20217;-87
2023/04/22 11:37:24;;;;;;;3.50;1.38;;;;;;;;;;5055312;28;20691;-87
2023/04/22 11:39:51;;;;;;;3.10;1.20;;;;;;;;;;5055385;28;20198;-85
2023/04/22 11:42:22;;;;;;;3.25;1.30;;;;;;;;;;5053873;28;20237;-87
2023/04/22 11:44:49;;;;;;;2.03;1.48;;;;;;;;;;5054280;28;20198;-86
2023/04/22 11:47:16;;;;;;;3.33;1.70;;;;;;;;;;5053487;28;20240;-86
2023/04/22 11:49:54;;;;;;;2.25;1.52;;;;;;;;;;5054159;28;20201;-88
2023/04/22 11:52:23;;;;;;;2.08;1.40;;;;;;;;;;5053536;28;20233;-86
2023/04/22 11:54:50;;;;;;;1.55;1.45;;;;;;;;;;5054826;28;20281;-87
2023/04/22 11:57:20;;;;;;;2.35;1.02;;;;;;;;;;5054070;28;20422;-89
2023/04/22 11:59:57;;;;;;;3.95;1.50;;;;;;;;;;5054584;28;20673;-86
2023/04/22 12:02:24;;;;;;;1.95;1.27;;;;;;;;;;5054218;28;20226;-88
2023/04/22 12:04:51;;;;;;;1.15;0.90;;;;;;;;;;5054303;28;20198;-87
2023/04/22 12:07:19;;;;;;;1.65;1.40;;;;;;;;;;5053664;28;20252;-89
2023/04/22 12:09:49;;;;;;;1.90;1.40;;;;;;;;;;5054197;28;20210;-89
2023/04/22 12:12:16;;;;;;;1.77;1.40;;;;;;;;;;5053709;28;20257;-90
2023/04/22 12:14:45;;;;;;;1.40;1.10;;;;;;;;;;5054278;28;20199;-88
2023/04/22 12:17:13;;;;;;;1.60;1.50;;;;;;;;;;5053654;28;20283;-88
2023/04/22 12:19:40;;;;;;;1.88;1.17;;;;;;;;;;5053689;28;20218;-88
2023/04/22 12:22:07;;;;;;;1.80;1.70;;;;;;;;;;5052295;28;20237;-88
2023/04/22 12:24:35;;;;;;;2.92;1.60;;;;;;;;;;5054065;28;20597;-88
2023/04/22 12:27:03;;;;;;;1.60;1.48;;;;;;;;;;5053899;28;20218;-89
2023/04/22 12:29:31;;;;;;;2.75;1.77;;;;;;;;;;5053854;28;20206;-87
2023/04/22 12:31:58;;;;;;;1.50;1.40;;;;;;;;;;5053473;28;20230;-88
2023/04/22 12:34:25;;;;;;;1.85;1.40;;;;;;;;;;5053974;28;20202;-89
2023/04/22 12:36:53;;;;;;;1.98;1.48;;;;;;;;;;5054739;28;20726;-88
2023/04/22 12:39:20;;;;;;;2.35;1.42;;;;;;;;;;5055143;28;20229;-88
2023/04/22 12:41:49;;;;;;;1.60;1.33;;;;;;;;;;5054618;28;20695;-89
2023/04/22 12:44:18;;;;;;;3.60;1.58;;;;;;;;;;5054372;28;20210;-88
2023/04/22 12:46:45;;;;;;;2.33;1.40;;;;;;;;;;5044822;28;20236;-88
2023/04/22 12:49:13;;;;;;;4.47;1.50;;;;;;;;;;5053882;28;20233;-89
2023/04/22 12:51:40;;;;;;;1.50;1.23;;;;;;;;;;5053135;28;20248;-88
2023/04/22 12:54:07;;;;;;;2.95;1.45;;;;;;;;;;5054724;28;20241;-87
2023/04/22 12:56:35;;;;;;;1.13;1.02;;;;;;;;;;5053027;28;20500;-88
2023/04/22 12:59:02;;;;;;;3.28;1.55;;;;;;;;;;5053636;28;20645;-88
2023/04/22 13:01:31;;;;;;;2.88;1.30;;;;;;;;;;5053197;28;20255;-87
2023/04/22 13:03:58;;;;;;;1.75;1.25;;;;;;;;;;5054550;28;20206;-88
2023/04/22 13:06:25;;;;;;;1.85;1.48;;;;;;;;;;5053018;28;20226;-88
2023/04/22 13:08:52;;;;;;;4.63;1.38;;;;;;;;;;5054099;28;20301;-89
2023/04/22 13:11:19;;;;;;;1.67;1.58;;;;;;;;;;5053213;28;20229;-88
2023/04/22 13:13:46;;;;;;;2.90;1.60;;;;;;;;;;5057563;28;20198;-88
2023/04/22 13:16:13;;;;;;;2.30;1.23;;;;;;;;;;5060032;28;20233;-87
2023/04/22 13:18:42;;;;;;;1.85;1.30;;;;;;;;;;5061176;28;20237;-89
2023/04/22 13:21:12;;;;;;;2.65;1.90;;;;;;;;;;5060214;28;20238;-89
2023/04/22 13:23:39;;;;;;;1.83;1.55;;;;;;;;;;5061653;28;20248;-88
2023/04/22 13:26:06;;;;;;;4.75;1.33;;;;;;;;;;5059771;28;20700;-87
2023/04/22 13:28:33;;;;;;;2.08;1.40;;;;;;;;;;5056139;28;20198;-87
2023/04/22 13:31:00;;;;;;;1.55;1.10;;;;;;;;;;5053809;28;20226;-86
2023/04/22 13:33:27;;;;;;;1.30;1.20;;;;;;;;;;5054414;28;20656;-87
2023/04/22 13:35:56;;;;;;;2.25;1.80;;;;;;;;;;5053196;28;20229;-88
2023/04/22 13:38:23;;;;;;;1.90;1.70;;;;;;;;;;5054499;28;20225;-88
2023/04/22 13:40:50;;;;;;;1.98;1.88;;;;;;;;;;5052921;28;20256;-87
2023/04/22 13:43:17;;;;;;;4.13;1.70;;;;;;;;;;5052634;28;20301;-86
2023/04/22 13:45:44;;;;;;;3.33;1.52;;;;;;;;;;5052995;28;20232;-85
2023/04/22 13:48:11;;;;;;;1.85;1.67;;;;;;;;;;5053020;28;20845;-87
2023/04/22 13:50:41;;;;;;;2.80;1.70;;;;;;;;;;5052353;28;20229;-86
2023/04/22 13:53:10;;;;;;;2.85;2.05;;;;;;;;;;5052860;28;20206;-87
2023/04/22 13:55:38;;;;;;;2.47;1.95;;;;;;;;;;5052789;28;20225;-88
2023/04/22 13:58:06;;;;;;;4.30;2.08;;;;;;;;;;5053892;28;20648;-87
2023/04/22 14:00:33;;;;;;;4.15;2.47;;;;;;;;;;5052877;28;20230;-86
2023/04/22 14:03:00;;;;;;;4.38;2.10;;;;;;;;;;5052708;28;20230;-87
2023/04/22 14:05:27;;;;;;;3.67;1.83;;;;;;;;;;5052499;28;20238;-88
2023/04/22 14:07:54;;;;;;;1.92;1.70;;;;;;;;;;5052884;28;20675;-88
2023/04/22 14:10:23;;;;;;;1.95;1.73;;;;;;;;;;5051882;28;20230;-86
2023/04/22 14:12:50;;;;;;;3.00;1.80;;;;;;;;;;5052858;28;20236;-87
2023/04/22 14:15:17;;;;;;;2.13;1.95;;;;;;;;;;5052433;28;20241;-88
2023/04/22 14:17:48;;;;;;;3.03;2.10;;;;;;;;;;5047157;28;20213;-88
2023/04/22 14:20:16;;;;;;;2.90;1.70;;;;;;;;;;5046398;28;20595;-86
2023/04/22 14:22:45;;;;;;;2.10;1.80;;;;;;;;;;5049398;28;20226;-88
2023/04/22 14:25:12;;;;;;;3.20;2.22;;;;;;;;;;5052384;28;20210;-88
2023/04/22 14:27:40;;;;;;;3.67;2.40;;;;;;;;;;5050432;28;20202;-89
2023/04/22 14:30:08;;;;;;;4.10;1.85;;;;;;;;;;5049923;28;20213;-87
2023/04/22 14:32:35;;;;;;;2.25;1.80;;;;;;;;;;5052156;28;20218;-88
2023/04/22 14:35:02;;;;;;;2.50;1.83;;;;;;;;;;5048530;28;20206;-90
2023/04/22 14:37:30;;;;;;;6.38;2.05;;;;;;;;;;5049944;28;20206;-88
2023/04/22 14:39:57;;;;;;;3.03;1.90;;;;;;;;;;5052116;28;20225;-89
2023/04/22 14:42:24;;;;;;;5.03;1.77;;;;;;;;;;5048819;28;20241;-90
2023/04/22 14:44:53;;;;;;;2.63;1.95;;;;;;;;;;5042351;28;20202;-90
2023/04/22 14:47:20;;;;;;;2.67;1.70;;;;;;;;;;5052094;28;20287;-90
2023/04/22 14:49:47;;;;;;;1.85;1.75;;;;;;;;;;5056402;28;20210;-91
2023/04/22 14:52:14;;;;;;;1.73;1.45;;;;;;;;;;5055029;28;20230;-87